Saint Leo, FL (33574)

10:02 PM EST on February 10, 2016 (GMT -0500)
Rural Wesley Chapel | | Change Station
CLOSE
Current Station
Personal Weather Station
Location: Wesley Chapel, FL
Elevation: 125 ft
Nearby Weather Stations
Active Advisory: Frost Advisory

Elev 125 ft 28.30 °N, 82.30 °W | Updated 14 minutes ago

Clear
Clear
39.4 °F
Feels Like 39 °F
N
0.0
Wind Variable Wind from ESE

Today
High -- | Low -- °F
--% Chance of Precip.
Yesterday
High -- | Low -- °F
Precip. -- in
Pressure 30.29 in
Visibility 10.0 miles
Clouds Clear
Windchill 39 °F
Dew Point 38 °F
Humidity 93%
Rainfall 0.00 in
Snow Depth Not available.
7:11 AM 6:15 PM
Waxing Crescent, 9% visible
METAR KZPH 110255Z AUTO 00000KT 10SM CLR 03/00 A3029 RMK AO2 T00300001
Pressure 30.29 in
Visibility 10.0 miles
Clouds Clear
Windchill 39 °F
Dew Point 38 °F
Humidity 93%
Rainfall 0.00 in
Snow Depth Not available.
7:11 AM 6:15 PM
Waxing Crescent, 9% visible
METAR KZPH 110255Z AUTO 00000KT 10SM CLR 03/00 A3029 RMK AO2 T00300001

10-Day Weather Forecast

Almanac

Astronomy

Feb. 10, 2016 Rise Set
Actual Time
Civil Twilight
Nautical Twilight
Astronomical Twilight
Moon
Length of Visible Light
Length of Day
Tomorrow will be .
, % of the Moon is Illuminated

Today's Extremes

State Highs State Lows

Community

WunderPhotos

Upload Photos

1,891,994 photos uploaded!

WunderBlog® & News

Nearby

Air Quality

  Air Quality AQ Index Pollutant
Not available.

Snow Depth

Station Depth Elevation

Earthquake Activity

City Distance Mag. Time & Date
Minimum magnitude displayed is 2.5.

Coastal Water Temperatures

Place Temperature

Stations

Nearby Weather Stations

Station Location Temp. Windchill Dew Point Humidity Wind Precip. Elev Updated Type
                   

Watches & Warnings

Frost Advisory
Issued: 9:49 PM EST Feb. 10, 2016 – National Weather Service

... Frost advisory remains in effect from 3 am to 9 am EST
Thursday...

* temperature... 33 to 36.

* Impacts... sensitive plants may be killed.

Precautionary/preparedness actions...

A frost advisory means that frost is possible. Sensitive outdoor
plants may be killed if left uncovered. Consider brining your
pets inside.